KLND/LND METAR and TAF weather

Enter ICAO airport designator
Station Type Date Time Source
KLND METAR 2020/04/07 17:53 UTC NOAA

KLND 071753Z AUTO 28020G27KT 10SM CLR 14/M05 A2996 RMK AO2 PK WND 29031/1728 SLP111 T01391050 10139 20039 50004


Station Type Date Time Source
KLND Decoded METAR 2020/04/07 17:53 UTC NOAA

LANDER HUNT FIELD, WY, United States (KLND) 42-49N 108-44W 1694M
Apr 07, 2020 - 01:53 PM EDT / 2020.04.07 1753 UTC
Wind: from the W (280 degrees) at 23 MPH (20 KT) gusting to 31 MPH (27 KT):0
Visibility: 10 mile(s):0
Sky conditions: clear
Temperature: 57.0 F (13.9 C)
Dew Point: 23.0 F (-5.0 C)
Relative Humidity: 26%
Pressure (altimeter): 29.96 in. Hg (1014 hPa)
Pressure tendency: 0.01 inches (0.4 hPa) higher than three hours ago
ob: KLND 071753Z AUTO 28020G27KT 10SM CLR 14/M05 A2996 RMK AO2 PK WND 29031/1728 SLP111 T01391050 10139 20039 50004
cycle: 18

Station Type Date Time Source
KLND TAF 2020/04/07 18:24 UTC NOAA

TAF KLND 071723Z 0718/0818 26019G27KT P6SM SCT090
FM080400 25007KT P6SM FEW100 SCT200
FM081700 05008KT P6SM FEW060

Example: see airport list